Time;durP1;ratioP1;P1;durP2;ratioP2;P2;SDS_P1;SDS_P2;PMS_P1;PMS_P2;Temp;Humidity;BMP_temperature;BMP_pressure;BME280_temperature;BME280_humidity;BME280_pressure;Samples;Min_cycle;Max_cycle;Signal;HPM_P1;HPM_P2
2022/01/16 00:04:06;;;;;;;15.70;7.10;;;;;;;2.63;85.90;102033.28;4989233;28;20244;-54
2022/01/16 00:04:55;;;;;;;19.00;8.57;;;;;;;2.66;86.34;102029.06;4996549;28;20232;-55
2022/01/16 00:07:21;;;;;;;20.60;8.57;;;;;;;2.63;85.58;102024.59;5000091;28;20556;-59
2022/01/16 00:09:49;;;;;;;17.60;8.30;;;;;;;2.60;86.46;102038.31;4994478;28;20772;-60
2022/01/16 00:12:18;;;;;;;15.20;9.13;;;;;;;2.53;87.03;102041.41;4995116;28;20445;-55
2022/01/16 00:14:45;;;;;;;18.17;9.53;;;;;;;2.56;86.06;102035.47;4983370;28;21096;-61
2022/01/16 00:17:11;;;;;;;13.60;8.37;;;;;;;2.53;87.40;102031.03;4992785;28;20341;-55
2022/01/16 00:19:37;;;;;;;15.80;8.13;;;;;;;2.59;86.72;102033.91;4990502;28;20303;-55
2022/01/16 00:22:12;;;;;;;21.23;8.17;;;;;;;2.64;86.65;102036.78;5005697;28;20232;-54
2022/01/16 00:24:38;;;;;;;19.27;8.73;;;;;;;2.62;86.29;102015.03;4998187;28;20235;-55
2022/01/16 00:27:06;;;;;;;14.27;8.70;;;;;;;2.59;86.42;102020.06;4995673;28;20233;-57
2022/01/16 00:29:33;;;;;;;23.80;10.17;;;;;;;2.55;86.26;102029.38;4994556;28;20229;-58
2022/01/16 00:31:59;;;;;;;12.43;8.30;;;;;;;2.56;87.13;102030.28;4994118;28;20232;-58
2022/01/16 00:34:26;;;;;;;12.07;8.00;;;;;;;2.57;87.32;102035.56;4996193;28;20267;-56
2022/01/16 00:36:52;;;;;;;13.67;6.93;;;;;;;2.59;87.25;102056.38;4989941;28;20233;-55
2022/01/16 00:39:18;;;;;;;14.43;7.43;;;;;;;2.68;87.16;102051.66;4995716;28;20276;-54
2022/01/16 00:41:46;;;;;;;16.23;7.87;;;;;;;2.79;85.55;102049.63;4991019;28;21012;-57
2022/01/16 00:44:14;;;;;;;14.17;6.70;;;;;;;2.72;85.95;102027.69;4991691;28;20237;-54
2022/01/16 00:46:41;;;;;;;15.60;7.10;;;;;;;2.68;86.29;102010.19;4994952;28;20295;-54
2022/01/16 00:49:07;;;;;;;20.17;8.77;;;;;;;2.67;86.95;102015.28;4986256;28;20260;-55
2022/01/16 00:51:33;;;;;;;15.63;7.50;;;;;;;2.65;85.93;101981.50;4994833;28;20236;-60
2022/01/16 00:54:00;;;;;;;13.57;7.40;;;;;;;2.60;86.46;101976.09;4993328;28;20886;-58
2022/01/16 00:56:26;;;;;;;13.87;8.67;;;;;;;2.56;87.17;101999.16;5000469;28;20236;-54
2022/01/16 00:58:52;;;;;;;12.77;6.17;;;;;;;2.57;86.34;101993.19;5007439;28;20308;-53
2022/01/16 01:01:20;;;;;;;11.47;6.60;;;;;;;2.59;87.32;102007.09;4991022;28;20240;-54
2022/01/16 01:03:46;;;;;;;20.00;8.23;;;;;;;2.61;86.17;101987.34;5005979;28;20240;-56
2022/01/16 01:06:13;;;;;;;15.87;7.20;;;;;;;2.58;87.66;102002.75;4997756;28;20671;-53
2022/01/16 01:08:40;;;;;;;20.20;7.87;;;;;;;2.59;87.35;101994.16;4992464;28;20244;-52
2022/01/16 01:11:11;;;;;;;11.90;6.63;;;;;;;2.59;86.83;101999.31;5000583;28;20239;-54
2022/01/16 01:14:07;;;;;;;15.00;7.87;;;;;;;2.60;87.56;101980.41;5002922;28;20233;-56
2022/01/16 01:16:49;;;;;;;19.57;7.77;;;;;;;2.58;86.82;101987.19;5003679;28;20248;-57
2022/01/16 01:19:16;;;;;;;9.63;6.73;;;;;;;2.65;86.22;101968.53;5001083;28;20293;-55
2022/01/16 01:21:42;;;;;;;11.97;6.90;;;;;;;2.65;87.69;101971.13;4995832;28;20255;-58
2022/01/16 01:24:08;;;;;;;14.50;7.37;;;;;;;2.53;88.88;101968.81;5002806;28;20760;-56
2022/01/16 01:26:42;;;;;;;18.77;6.93;;;;;;;2.56;87.17;101968.06;5005328;28;20314;-54
2022/01/16 01:29:09;;;;;;;15.13;7.87;;;;;;;2.49;87.12;101965.97;4989110;28;20480;-57
2022/01/16 01:31:36;;;;;;;20.23;9.17;;;;;;;2.49;87.26;101965.97;5002252;28;20290;-55
2022/01/16 01:34:03;;;;;;;14.77;7.63;;;;;;;2.48;88.00;101959.00;5002501;28;20272;-57
2022/01/16 01:36:29;;;;;;;13.67;6.93;;;;;;;2.74;88.39;101963.84;4995677;28;20364;-58
2022/01/16 01:38:55;;;;;;;12.63;6.83;;;;;;;2.63;88.95;101950.31;4993876;28;20244;-56
2022/01/16 01:41:22;;;;;;;10.87;6.90;;;;;;;2.49;88.01;101956.50;5004798;28;20438;-54
2022/01/16 01:52:01;;;;;;;12.73;6.77;;;;;;;2.46;89.16;101831.94;5001164;28;20257;-54
2022/01/16 01:54:27;;;;;;;13.63;6.73;;;;;;;2.47;90.03;101833.72;4997852;28;20251;-55
2022/01/16 01:56:55;;;;;;;12.23;5.53;;;;;;;2.30;89.64;101813.84;5013107;28;20228;-56
2022/01/16 01:59:21;;;;;;;18.13;6.07;;;;;;;2.47;89.13;101848.38;5003760;28;20344;-56
2022/01/16 02:01:48;;;;;;;16.37;5.67;;;;;;;2.45;89.68;101868.13;5010531;28;20252;-55
2022/01/16 02:04:14;;;;;;;10.47;5.53;;;;;;;2.42;88.44;101873.16;5015113;28;20243;-59
2022/01/16 02:06:42;;;;;;;14.40;6.00;;;;;;;2.35;88.77;101883.25;5000178;28;20260;-54
2022/01/16 02:09:10;;;;;;;9.93;5.27;;;;;;;2.37;89.10;101868.63;4991486;28;20276;-54
2022/01/16 02:11:36;;;;;;;9.73;5.33;;;;;;;2.36;89.37;101872.06;5002123;28;20302;-56
2022/01/16 02:14:09;;;;;;;15.50;5.07;;;;;;;2.34;88.22;101852.94;4998272;28;20243;-55
2022/01/16 02:35:47;;;;;;;11.10;5.70;;;;;;;2.37;90.17;101879.00;5000942;28;20311;-57
2022/01/16 02:38:15;;;;;;;16.07;5.57;;;;;;;2.52;91.15;101883.19;5008593;28;20716;-57
2022/01/16 02:40:49;;;;;;;15.77;5.73;;;;;;;2.43;89.47;101877.56;5001684;28;20721;-54
2022/01/16 02:43:18;;;;;;;12.57;5.70;;;;;;;2.32;89.22;101874.41;4999184;28;20237;-57
2022/01/16 02:45:48;;;;;;;13.30;6.60;;;;;;;2.38;89.83;101870.41;4994951;28;20264;-55
2022/01/16 02:48:14;;;;;;;25.33;7.00;;;;;;;2.27;89.54;101863.81;5004634;28;20619;-54
2022/01/16 02:50:41;;;;;;;16.07;7.00;;;;;;;2.21;89.36;101858.34;4995401;28;20249;-53
2022/01/16 02:53:10;;;;;;;12.87;5.77;;;;;;;2.18;90.67;101865.03;5000548;28;20237;-57
2022/01/16 02:55:40;;;;;;;20.40;7.07;;;;;;;2.30;94.00;101845.81;5001758;28;20659;-55
2022/01/16 02:58:06;;;;;;;11.13;6.27;;;;;;;2.12;91.91;101845.78;5006000;28;20319;-55
2022/01/16 03:00:33;;;;;;;19.10;6.80;;;;;;;2.17;91.36;101838.22;4992650;28;20253;-56
2022/01/16 03:02:59;;;;;;;16.30;5.87;;;;;;;2.18;90.66;101834.84;4992701;28;20291;-55
2022/01/16 03:05:26;;;;;;;17.47;6.60;;;;;;;2.15;91.36;101839.88;4997211;28;20288;-53
2022/01/16 03:07:52;;;;;;;8.53;6.30;;;;;;;2.15;94.28;101832.09;5000422;28;20245;-56
2022/01/16 03:10:44;;;;;;;13.90;6.67;;;;;;;2.08;92.96;101827.44;5000843;28;20261;-55
2022/01/16 03:13:14;;;;;;;24.77;7.20;;;;;;;2.18;94.47;101808.03;4996855;28;20274;-56
2022/01/16 03:15:40;;;;;;;17.20;6.23;;;;;;;1.99;92.86;101807.09;4995155;28;20242;-53
2022/01/16 03:23:35;;;;;;;14.97;6.20;;;;;;;1.83;93.78;101776.97;5000905;28;20242;-53
2022/01/16 03:26:01;;;;;;;15.93;6.80;;;;;;;1.80;93.99;101776.81;5000727;28;20236;-57
2022/01/16 03:28:29;;;;;;;11.27;5.53;;;;;;;1.75;95.82;101770.50;4999881;28;20258;-61
2022/01/16 03:30:56;;;;;;;18.07;5.70;;;;;;;1.91;94.53;101770.47;4999482;28;20271;-56
2022/01/16 03:33:22;;;;;;;16.60;6.27;;;;;;;1.81;93.55;101762.16;5007517;28;20239;-56
2022/01/16 03:35:49;;;;;;;12.50;4.80;;;;;;;1.81;93.69;101763.03;5000307;28;20239;-57
2022/01/16 03:38:16;;;;;;;17.30;5.60;;;;;;;1.72;93.06;101747.06;5001127;28;20237;-53
2022/01/16 03:40:42;;;;;;;18.50;6.40;;;;;;;1.58;93.84;101748.03;4999578;28;20237;-55
2022/01/16 03:43:13;;;;;;;20.30;5.93;;;;;;;1.57;95.06;101746.25;4995884;28;20256;-57
2022/01/16 03:45:42;;;;;;;11.00;4.97;;;;;;;1.55;93.42;101727.19;4991703;28;20754;-53
2022/01/16 03:48:09;;;;;;;11.33;5.33;;;;;;;1.40;93.67;101730.75;5016064;28;20259;-53
2022/01/16 03:50:35;;;;;;;16.37;6.30;;;;;;;1.41;94.30;101721.31;5013972;28;20229;-54
2022/01/16 03:53:01;;;;;;;17.67;6.13;;;;;;;1.53;98.03;101721.03;5002774;28;20225;-58
2022/01/16 03:55:28;;;;;;;15.37;5.10;;;;;;;1.48;96.29;101732.88;5009246;28;20294;-60
2022/01/16 03:57:54;;;;;;;16.53;5.97;;;;;;;1.67;98.86;101717.44;4999710;28;20245;-56
2022/01/16 04:00:20;;;;;;;12.50;5.17;;;;;;;1.55;94.42;101724.59;5006901;28;20274;-56
2022/01/16 04:02:48;;;;;;;14.93;5.70;;;;;;;1.53;94.09;101718.44;5005248;28;20296;-53
2022/01/16 04:05:14;;;;;;;13.80;4.63;;;;;;;1.48;97.22;101713.03;5005035;28;20240;-56
2022/01/16 04:07:41;;;;;;;14.80;5.90;;;;;;;1.48;95.68;101701.81;5010699;28;20320;-60
2022/01/16 04:10:08;;;;;;;19.03;5.17;;;;;;;1.50;96.58;101682.06;5005114;28;20241;-59
2022/01/16 04:12:37;;;;;;;22.63;6.13;;;;;;;1.36;95.24;101681.34;5013180;28;20235;-59
2022/01/16 04:17:50;;;;;;;12.37;4.93;;;;;;;1.47;99.03;101674.13;5005849;28;20242;-58
2022/01/16 04:20:16;;;;;;;15.57;5.57;;;;;;;1.22;95.81;101666.81;5007676;28;20275;-59
2022/01/16 04:22:43;;;;;;;10.87;4.70;;;;;;;1.29;95.36;101669.78;5008114;28;20251;-57
2022/01/16 04:25:09;;;;;;;8.07;4.77;;;;;;;1.29;95.97;101664.63;5007518;28;20306;-55
2022/01/16 04:27:35;;;;;;;11.53;5.33;;;;;;;1.26;99.36;101659.28;4997705;28;20268;-54
2022/01/16 04:30:02;;;;;;;12.87;5.37;;;;;;;1.21;96.79;101653.00;4993750;28;20260;-55
2022/01/16 04:32:28;;;;;;;14.23;4.70;;;;;;;1.19;96.67;101668.44;4997568;28;20291;-58
2022/01/16 04:34:56;;;;;;;15.13;5.80;;;;;;;1.26;97.52;101661.00;4997096;28;20224;-54
2022/01/16 04:37:22;;;;;;;12.13;5.30;;;;;;;1.20;96.69;101661.59;5002200;28;20371;-55
2022/01/16 04:39:51;;;;;;;15.60;4.90;;;;;;;1.22;96.33;101659.94;4991139;28;20247;-57
2022/01/16 04:45:03;;;;;;;17.77;5.93;;;;;;;0.97;97.09;101646.56;4989668;28;20243;-55
2022/01/16 04:47:29;;;;;;;21.20;5.17;;;;;;;0.93;97.98;101648.09;5005767;28;20228;-55
2022/01/16 04:49:57;;;;;;;17.37;5.93;;;;;;;0.95;97.50;101642.19;4997132;28;20372;-54
2022/01/16 04:52:23;;;;;;;14.27;5.27;;;;;;;1.03;99.14;101633.97;4993215;28;20244;-58
2022/01/16 04:54:49;;;;;;;12.33;4.03;;;;;;;1.01;98.30;101631.28;4997029;28;20257;-56
2022/01/16 04:57:16;;;;;;;14.00;5.47;;;;;;;1.30;98.39;101624.13;4998530;28;20229;-60
2022/01/16 04:59:43;;;;;;;13.40;5.03;;;;;;;1.08;96.77;101627.31;4999055;28;20772;-53
2022/01/16 05:02:09;;;;;;;16.57;5.60;;;;;;;0.98;97.35;101627.63;5000708;28;20233;-53
2022/01/16 05:04:36;;;;;;;17.40;7.30;;;;;;;0.95;98.22;101621.53;5007939;28;20282;-53
2022/01/16 05:07:04;;;;;;;13.90;5.10;;;;;;;0.99;98.55;101622.56;5000125;28;20236;-55
2022/01/16 05:09:30;;;;;;;11.27;4.90;;;;;;;0.88;98.37;101622.00;5004035;28;20232;-54
2022/01/16 05:11:58;;;;;;;16.27;5.37;;;;;;;0.79;99.03;101618.94;5002319;28;20237;-57
2022/01/16 05:17:09;;;;;;;15.83;5.03;;;;;;;1.00;100.00;101613.09;5004387;28;20302;-56
2022/01/16 05:19:37;;;;;;;7.10;5.13;;;;;;;0.97;98.17;101605.19;5002523;28;20229;-55
2022/01/16 05:22:05;;;;;;;12.47;6.43;;;;;;;0.86;97.94;101605.50;5008426;28;20244;-54
2022/01/16 05:24:34;;;;;;;17.83;5.53;;;;;;;0.80;99.09;101615.53;5000513;28;20826;-62
2022/01/16 05:27:00;;;;;;;14.00;5.63;;;;;;;0.84;99.18;101609.72;5006899;28;20237;-53
2022/01/16 05:29:27;;;;;;;7.23;4.87;;;;;;;0.80;98.73;101594.84;4995146;28;20288;-58
2022/01/16 05:31:53;;;;;;;16.13;6.10;;;;;;;0.80;98.96;101592.25;5001497;28;20286;-55
2022/01/16 05:34:21;;;;;;;14.30;5.33;;;;;;;0.89;98.36;101585.00;5000022;28;20248;-53
2022/01/16 05:36:48;;;;;;;13.30;6.07;;;;;;;0.81;98.91;101578.56;4999997;28;20236;-57
2022/01/16 05:39:16;;;;;;;18.67;5.13;;;;;;;0.71;99.05;101573.72;5000122;28;20232;-61
2022/01/16 05:41:42;;;;;;;15.77;6.13;;;;;;;0.66;100.00;101577.72;5003661;28;20256;-57
2022/01/16 05:44:08;;;;;;;14.10;6.70;;;;;;;0.66;99.87;101576.03;5001222;28;20240;-53
2022/01/16 05:46:35;;;;;;;14.80;6.47;;;;;;;0.61;100.00;101576.63;5002246;28;20331;-56
2022/01/16 05:49:01;;;;;;;18.10;5.93;;;;;;;0.79;99.03;101575.00;5005646;28;20260;-55
2022/01/16 05:51:27;;;;;;;11.10;6.50;;;;;;;0.64;99.80;101579.38;5001224;28;20716;-54
2022/01/16 05:53:56;;;;;;;11.93;7.17;;;;;;;0.57;99.85;101579.84;4989299;28;20914;-57
2022/01/16 05:56:24;;;;;;;21.97;6.93;;;;;;;0.54;100.00;101571.94;5007772;28;20237;-53
2022/01/16 05:58:51;;;;;;;16.20;6.83;;;;;;;0.44;100.00;101573.13;5000515;28;20261;-54
2022/01/16 06:01:17;;;;;;;14.87;7.87;;;;;;;0.39;100.00;101570.31;5008778;28;20241;-55
2022/01/16 06:03:43;;;;;;;20.33;8.50;;;;;;;0.36;100.00;101564.97;4994976;28;20311;-51
2022/01/16 06:06:09;;;;;;;16.37;8.23;;;;;;;0.44;100.00;101573.13;4984142;28;20271;-55
2022/01/16 06:08:38;;;;;;;27.03;8.37;;;;;;;0.34;100.00;101569.16;4995416;28;20294;-56
2022/01/16 06:11:04;;;;;;;14.43;9.40;;;;;;;0.29;100.00;101567.16;5000740;28;20740;-56
2022/01/16 06:13:32;;;;;;;21.60;9.97;;;;;;;0.11;100.00;101559.31;4998675;28;20270;-56
2022/01/16 06:15:58;;;;;;;22.77;9.93;;;;;;;0.09;100.00;101563.50;4993215;28;20250;-55
2022/01/16 06:18:24;;;;;;;20.27;9.17;;;;;;;-0.02;100.00;101556.03;5002132;28;20236;-56
2022/01/16 06:20:52;;;;;;;14.57;9.27;;;;;;;-0.01;100.00;101547.47;4996655;28;20814;-56
2022/01/16 06:23:18;;;;;;;13.43;9.73;;;;;;;-0.05;100.00;101550.72;4997594;28;20258;-53
2022/01/16 06:25:45;;;;;;;18.43;10.20;;;;;;;-0.01;100.00;101541.44;5008268;28;20260;-54
2022/01/16 06:28:11;;;;;;;16.63;9.70;;;;;;;-0.03;100.00;101538.78;5010381;28;20255;-57
2022/01/16 06:30:39;;;;;;;19.70;10.73;;;;;;;0.02;100.00;101551.06;5009594;28;20291;-58
2022/01/16 06:33:06;;;;;;;19.73;10.80;;;;;;;0.04;100.00;101539.13;5012609;28;20242;-59
2022/01/16 06:35:33;;;;;;;20.63;10.17;;;;;;;-0.03;100.00;101541.38;4988161;28;991796;-57
2022/01/16 06:37:59;;;;;;;21.40;9.67;;;;;;;-0.05;100.00;101537.81;5013745;28;20291;-60
2022/01/16 06:40:25;;;;;;;16.60;9.57;;;;;;;-0.08;100.00;101540.22;5013834;28;20294;-56
2022/01/16 06:42:52;;;;;;;19.47;10.70;;;;;;;-0.17;100.00;101544.00;5016752;28;20279;-55
2022/01/16 06:45:19;;;;;;;24.33;10.40;;;;;;;-0.11;100.00;101540.03;4996788;28;20241;-55
2022/01/16 06:47:46;;;;;;;14.77;9.80;;;;;;;-0.15;100.00;101538.09;5007508;28;20229;-55
2022/01/16 06:50:13;;;;;;;17.77;10.17;;;;;;;-0.21;100.00;101548.09;5007483;28;20260;-55
2022/01/16 06:52:39;;;;;;;17.13;11.03;;;;;;;-0.22;100.00;101545.44;5003257;28;20232;-56
2022/01/16 06:55:07;;;;;;;19.23;10.97;;;;;;;-0.20;100.00;101555.03;5009782;28;20839;-61
2022/01/16 06:57:33;;;;;;;23.20;10.77;;;;;;;-0.28;100.00;101553.69;4996097;28;20235;-55
2022/01/16 07:00:00;;;;;;;15.77;10.43;;;;;;;-0.29;100.00;101551.94;4999609;28;20255;-56
2022/01/16 07:02:27;;;;;;;23.77;11.37;;;;;;;-0.33;100.00;101556.03;5000163;28;20244;-56
2022/01/16 07:04:54;;;;;;;24.23;12.53;;;;;;;-0.38;100.00;101554.03;4994365;28;20776;-55
2022/01/16 07:07:21;;;;;;;14.87;9.97;;;;;;;-0.32;100.00;101552.63;4999035;28;20244;-55
2022/01/16 07:09:47;;;;;;;23.00;11.30;;;;;;;-0.37;100.00;101553.22;4991900;28;20236;-57
2022/01/16 07:12:13;;;;;;;18.23;10.40;;;;;;;-0.41;100.00;101554.72;4994550;28;20256;-53
2022/01/16 07:14:40;;;;;;;20.80;10.83;;;;;;;-0.38;100.00;101562.66;4998419;28;20244;-57
2022/01/16 07:17:06;;;;;;;18.00;10.90;;;;;;;-0.45;100.00;101557.06;4999415;28;20283;-57
2022/01/16 07:19:33;;;;;;;17.10;10.27;;;;;;;-0.45;100.00;101572.53;5010009;28;20235;-57
2022/01/16 07:22:00;;;;;;;17.93;10.83;;;;;;;-0.34;100.00;101566.28;5005930;28;20233;-57
2022/01/16 07:24:27;;;;;;;15.73;9.97;;;;;;;-0.42;100.00;101577.84;4998785;28;20310;-55
2022/01/16 07:26:54;;;;;;;18.17;11.47;;;;;;;-0.54;100.00;101568.59;4996470;28;20232;-57
2022/01/16 07:29:20;;;;;;;18.07;10.70;;;;;;;-0.53;100.00;101575.56;4990980;28;20297;-56
2022/01/16 07:31:47;;;;;;;23.47;12.17;;;;;;;-0.49;100.00;101564.63;5001424;28;20807;-54
2022/01/16 07:34:13;;;;;;;23.33;11.80;;;;;;;-0.54;100.00;101571.19;5001151;28;20769;-57
2022/01/16 07:36:39;;;;;;;20.13;11.40;;;;;;;-0.47;100.00;101568.97;5000629;28;20264;-55
2022/01/16 07:39:07;;;;;;;21.13;12.20;;;;;;;-0.32;100.00;101574.97;5003561;28;20921;-55
2022/01/16 07:41:33;;;;;;;19.60;11.87;;;;;;;-0.37;100.00;101571.25;5001822;28;20297;-57
2022/01/16 07:44:01;;;;;;;21.47;11.63;;;;;;;-0.31;100.00;101572.50;4998811;28;20257;-54
2022/01/16 07:46:28;;;;;;;20.23;11.73;;;;;;;-0.34;100.00;101571.44;4994494;28;20753;-53
2022/01/16 07:48:54;;;;;;;20.83;11.63;;;;;;;-0.33;100.00;101570.63;4991665;28;20880;-57
2022/01/16 07:51:21;;;;;;;17.23;13.13;;;;;;;-0.36;100.00;101573.03;4994773;28;20264;-56
2022/01/16 07:53:47;;;;;;;19.30;11.80;;;;;;;-0.38;100.00;101569.50;4990933;28;20307;-53
2022/01/16 07:56:15;;;;;;;18.97;12.10;;;;;;;-0.41;100.00;101562.47;5005712;28;20255;-54
2022/01/16 07:58:42;;;;;;;15.53;10.83;;;;;;;-0.39;100.00;101567.69;4996779;28;20291;-56
2022/01/16 08:01:08;;;;;;;20.53;12.93;;;;;;;-0.43;100.00;101570.91;5006395;28;20233;-53
2022/01/16 08:03:35;;;;;;;22.53;12.27;;;;;;;-0.37;100.00;101568.69;4999222;28;20867;-57
2022/01/16 08:06:01;;;;;;;19.37;12.43;;;;;;;-0.35;100.00;101557.66;5004614;28;20230;-55
2022/01/16 08:08:28;;;;;;;21.53;11.97;;;;;;;-0.37;100.00;101564.41;4987020;28;20306;-63
2022/01/16 08:10:54;;;;;;;26.17;15.97;;;;;;;-0.35;100.00;101564.47;5004038;28;20766;-58
2022/01/16 08:13:22;;;;;;;31.43;15.07;;;;;;;-0.44;100.00;101548.50;4994185;28;20236;-54
2022/01/16 08:15:48;;;;;;;19.60;12.77;;;;;;;-0.38;100.00;101551.44;4995985;28;20297;-53
2022/01/16 08:18:14;;;;;;;18.23;12.37;;;;;;;-0.26;100.00;101549.53;4991969;28;20286;-53
2022/01/16 08:20:41;;;;;;;18.47;12.23;;;;;;;-0.21;100.00;101553.28;4997864;28;20436;-55
2022/01/16 08:23:07;;;;;;;20.33;13.17;;;;;;;-0.21;100.00;101558.44;4996956;28;20286;-55
2022/01/16 08:25:33;;;;;;;19.73;12.37;;;;;;;-0.21;100.00;101558.44;4999850;28;20260;-53
2022/01/16 08:28:00;;;;;;;20.13;13.03;;;;;;;-0.16;100.00;101553.50;5002561;28;20745;-56
2022/01/16 08:30:28;;;;;;;17.53;12.10;;;;;;;-0.27;100.00;101548.66;5000225;28;20342;-54
2022/01/16 08:32:54;;;;;;;26.87;12.90;;;;;;;-0.24;100.00;101527.28;5003531;28;20297;-54
2022/01/16 08:35:21;;;;;;;24.47;13.50;;;;;;;-0.26;100.00;101531.47;5004637;28;20307;-54
2022/01/16 08:37:48;;;;;;;23.60;15.90;;;;;;;-0.17;100.00;101537.16;4996056;28;20231;-55
2022/01/16 08:40:15;;;;;;;22.77;13.00;;;;;;;-0.20;100.00;101529.22;4997464;28;20704;-56
2022/01/16 08:42:42;;;;;;;21.83;12.73;;;;;;;-0.17;100.00;101536.25;4996170;28;20259;-53
2022/01/16 08:45:09;;;;;;;14.50;11.37;;;;;;;-0.05;100.00;101524.91;4995727;28;20241;-55
2022/01/16 08:47:37;;;;;;;24.17;12.73;;;;;;;0.00;100.00;101514.84;4996178;28;20237;-59
2022/01/16 08:50:04;;;;;;;21.13;12.87;;;;;;;-0.04;100.00;101521.50;5006828;28;20289;-54
2022/01/16 08:52:31;;;;;;;21.33;13.93;;;;;;;0.01;100.00;101526.06;4995204;28;20241;-56
2022/01/16 08:54:57;;;;;;;27.33;15.53;;;;;;;0.03;100.00;101524.44;4999840;28;20654;-56
2022/01/16 08:57:23;;;;;;;27.23;13.53;;;;;;;0.11;100.00;101520.59;5002889;28;20240;-54
2022/01/16 08:59:50;;;;;;;30.43;13.03;;;;;;;0.15;100.00;101513.06;4998150;28;20673;-54
2022/01/16 09:02:16;;;;;;;21.03;12.90;;;;;;;0.18;100.00;101502.03;5002525;28;20294;-53
2022/01/16 09:04:44;;;;;;;24.63;13.00;;;;;;;0.08;100.00;101502.34;5001981;28;20258;-57
2022/01/16 09:07:10;;;;;;;22.90;14.27;;;;;;;0.06;100.00;101496.19;5000856;28;20252;-56
2022/01/16 09:09:36;;;;;;;19.23;12.93;;;;;;;0.12;100.00;101501.69;4992091;28;20257;-56
2022/01/16 09:12:03;;;;;;;19.33;13.60;;;;;;;0.24;100.00;101487.72;5004422;28;20241;-53
2022/01/16 09:14:30;;;;;;;24.63;14.20;;;;;;;0.36;100.00;101487.50;4996594;28;20239;-58
2022/01/16 09:16:56;;;;;;;21.00;13.50;;;;;;;0.37;100.00;101504.75;5001876;28;23029;-55
2022/01/16 09:19:22;;;;;;;23.90;14.33;;;;;;;0.47;100.00;101496.69;4998317;28;20359;-56
2022/01/16 09:21:50;;;;;;;22.10;14.40;;;;;;;0.46;100.00;101505.25;4994740;28;20266;-55
2022/01/16 09:24:16;;;;;;;19.93;13.57;;;;;;;0.58;100.00;101506.69;4999631;28;20329;-60
2022/01/16 09:26:43;;;;;;;23.70;13.40;;;;;;;0.59;100.00;101506.75;4994480;28;20228;-56
2022/01/16 09:29:09;;;;;;;23.43;15.87;;;;;;;0.50;100.00;101515.75;4989518;28;20228;-53
2022/01/16 09:31:35;;;;;;;27.70;16.23;;;;;;;0.46;100.00;101505.25;5000614;28;20237;-54
2022/01/16 09:34:02;;;;;;;23.37;14.83;;;;;;;0.55;100.00;101509.13;5010340;28;20235;-55
2022/01/16 09:36:28;;;;;;;21.17;14.67;;;;;;;0.64;100.00;101509.59;5002357;28;20261;-58
2022/01/16 09:38:56;;;;;;;17.73;13.93;;;;;;;0.66;100.00;101507.97;4999757;28;20229;-54
2022/01/16 09:41:22;;;;;;;21.67;14.80;;;;;;;0.63;100.00;101513.88;5000255;28;20244;-56
2022/01/16 09:43:49;;;;;;;23.43;14.83;;;;;;;0.62;100.00;101511.22;5004693;28;20230;-55
2022/01/16 09:46:15;;;;;;;21.00;16.30;;;;;;;0.67;100.00;101504.59;5005593;28;20806;-54
2022/01/16 09:48:43;;;;;;;18.33;13.37;;;;;;;0.75;100.00;101499.81;4998222;28;20236;-57
2022/01/16 09:51:09;;;;;;;24.73;15.30;;;;;;;0.81;100.00;101502.69;4995475;28;20231;-52
2022/01/16 09:53:36;;;;;;;24.37;15.27;;;;;;;0.82;100.00;101507.06;4998808;28;20241;-54
2022/01/16 09:56:04;;;;;;;23.83;14.00;;;;;;;0.90;100.00;101509.22;5002662;28;20690;-58
2022/01/16 09:58:30;;;;;;;19.80;14.13;;;;;;;1.14;100.00;101508.66;5002747;28;20249;-55
2022/01/16 10:00:57;;;;;;;17.77;12.70;;;;;;;1.26;100.00;101514.44;4996395;28;20245;-55
2022/01/16 10:03:34;;;;;;;20.87;14.30;;;;;;;1.33;100.00;101511.34;5005166;28;20272;-53
2022/01/16 10:06:09;;;;;;;20.43;13.63;;;;;;;1.55;100.00;101525.34;4996415;28;20236;-53
2022/01/16 10:08:36;;;;;;;23.00;15.30;;;;;;;1.70;100.00;101513.13;5003195;28;20761;-58
2022/01/16 10:11:20;;;;;;;23.63;15.93;;;;;;;1.62;100.00;101524.81;4996925;28;20232;-59
2022/01/16 10:13:56;;;;;;;21.40;13.87;;;;;;;1.78;100.00;101523.81;4989703;28;20324;-56
2022/01/16 10:16:25;;;;;;;20.07;13.37;;;;;;;1.70;100.00;101520.88;5003794;28;20254;-54
2022/01/16 10:18:51;;;;;;;20.70;14.00;;;;;;;1.71;100.00;101535.59;5002439;28;20233;-55
2022/01/16 10:21:32;;;;;;;22.17;13.63;;;;;;;1.67;100.00;101538.84;5002377;28;20243;-58
2022/01/16 10:23:58;;;;;;;22.00;14.40;;;;;;;1.54;100.00;101539.94;5010171;28;20237;-60
2022/01/16 10:26:28;;;;;;;20.67;14.43;;;;;;;1.30;100.00;101546.50;5018141;28;20240;-60
2022/01/16 10:28:54;;;;;;;17.60;14.10;;;;;;;1.27;100.00;101526.56;5006297;28;20721;-53
2022/01/16 10:31:25;;;;;;;19.07;13.80;;;;;;;1.33;100.00;101532.03;4991670;28;20268;-53
2022/01/16 10:33:53;;;;;;;19.80;14.67;;;;;;;1.36;100.00;101542.53;4998603;28;20232;-53
2022/01/16 10:36:33;;;;;;;21.90;15.07;;;;;;;1.29;100.00;101548.22;5006398;28;20235;-54
2022/01/16 10:39:05;;;;;;;18.70;14.07;;;;;;;1.34;100.00;101548.47;5003466;28;20267;-54
2022/01/16 10:41:33;;;;;;;23.27;16.07;;;;;;;1.31;100.00;101544.03;4998153;28;20720;-52
2022/01/16 10:44:00;;;;;;;23.80;15.73;;;;;;;1.38;100.00;101542.63;4990611;28;20231;-54
2022/01/16 10:46:27;;;;;;;21.80;14.30;;;;;;;1.19;100.00;101538.22;4995999;28;20239;-55
2022/01/16 10:49:11;;;;;;;24.50;16.00;;;;;;;1.02;100.00;101536.50;5011697;28;20245;-58
2022/01/16 10:51:38;;;;;;;24.30;15.97;;;;;;;0.97;100.00;101537.97;5014558;28;20218;-56
2022/01/16 10:54:28;;;;;;;22.60;15.80;;;;;;;1.06;100.00;101536.75;5014058;28;20328;-57
2022/01/16 10:56:56;;;;;;;21.33;15.00;;;;;;;1.06;100.00;101535.84;4994918;28;20221;-55
2022/01/16 10:59:23;;;;;;;23.17;15.97;;;;;;;0.86;100.00;101520.22;4999201;28;20300;-54
2022/01/16 11:02:07;;;;;;;22.23;15.43;;;;;;;0.98;100.00;101509.59;5015769;28;20777;-58
2022/01/16 11:04:33;;;;;;;26.10;15.73;;;;;;;1.10;100.00;101511.91;5009683;28;20548;-55
2022/01/16 11:07:03;;;;;;;29.53;18.97;;;;;;;1.06;100.00;101515.16;5008043;28;20703;-52
2022/01/16 11:09:31;;;;;;;24.23;17.13;;;;;;;1.03;100.00;101512.44;4992186;28;20229;-53
2022/01/16 11:12:00;;;;;;;25.10;15.63;;;;;;;1.06;100.00;101516.06;4997873;28;20241;-53
2022/01/16 11:14:27;;;;;;;25.90;14.80;;;;;;;1.20;100.00;101514.16;5003038;28;20243;-55
2022/01/16 11:16:54;;;;;;;21.73;16.20;;;;;;;1.28;100.00;101512.81;5000317;28;20247;-59
2022/01/16 11:19:21;;;;;;;21.87;14.80;;;;;;;1.25;100.00;101516.97;4988635;28;20257;-61
2022/01/16 11:21:51;;;;;;;25.87;17.67;;;;;;;1.30;100.00;101526.72;4996122;28;20246;-57
2022/01/16 11:24:32;;;;;;;26.60;15.80;;;;;;;1.37;100.00;101513.28;5001745;28;20230;-55
2022/01/16 11:27:00;;;;;;;24.07;15.97;;;;;;;1.37;100.00;101518.47;4996832;28;20240;-53
2022/01/16 11:29:28;;;;;;;24.03;16.73;;;;;;;1.50;100.00;101508.69;5002931;28;20325;-54
2022/01/16 11:31:56;;;;;;;23.60;15.70;;;;;;;1.56;100.00;101504.69;5003589;28;20244;-54
2022/01/16 11:34:23;;;;;;;23.93;15.97;;;;;;;1.62;100.00;101520.53;5005032;28;20309;-55
2022/01/16 11:36:49;;;;;;;22.50;15.10;;;;;;;1.70;100.00;101515.69;4997900;28;20318;-54
2022/01/16 11:39:16;;;;;;;25.13;16.20;;;;;;;1.62;100.00;101527.41;5006334;28;20239;-55
2022/01/16 11:41:50;;;;;;;18.80;14.60;;;;;;;1.59;100.00;101524.66;5001307;28;20241;-55
2022/01/16 11:44:24;;;;;;;23.17;15.43;;;;;;;1.43;100.00;101515.25;5006173;28;20237;-54
2022/01/16 11:46:52;;;;;;;25.37;15.87;;;;;;;1.48;100.00;101515.50;5002290;28;20241;-55
2022/01/16 11:49:31;;;;;;;23.17;15.93;;;;;;;1.43;100.00;101518.72;5006052;28;20267;-55
2022/01/16 11:52:04;;;;;;;21.83;15.13;;;;;;;1.50;100.00;101511.28;4998286;28;20240;-54
2022/01/16 11:54:32;;;;;;;24.47;15.67;;;;;;;1.46;100.00;101507.66;4997520;28;20614;-54
2022/01/16 11:57:05;;;;;;;28.27;16.37;;;;;;;1.46;100.00;101507.66;4993392;28;20717;-54
2022/01/16 11:59:40;;;;;;;26.10;15.77;;;;;;;1.56;100.00;101515.03;4999748;28;20235;-54